Time;durP1;ratioP1;P1;durP2;ratioP2;P2;SDS_P1;SDS_P2;PMS_P1;PMS_P2;Temp;Humidity;BMP_temperature;BMP_pressure;BME280_temperature;BME280_humidity;BME280_pressure;Samples;Min_cycle;Max_cycle;Signal;HPM_P1;HPM_P2
2022/03/16 00:01:52;;;;;;;8.48;5.85;;;8.30;99.90;;;;;;4143477;28;20076;-66
2022/03/16 00:03:53;;;;;;;7.80;5.38;;;8.20;99.90;;;;;;4139197;28;20045;-66
2022/03/16 00:05:54;;;;;;;6.75;5.05;;;8.20;99.90;;;;;;4142548;28;20241;-66
2022/03/16 00:07:54;;;;;;;8.07;5.47;;;8.10;99.90;;;;;;4143629;28;20042;-66
2022/03/16 00:09:55;;;;;;;9.02;6.50;;;8.10;99.90;;;;;;4143453;28;20043;-66
2022/03/16 00:11:55;;;;;;;7.63;5.15;;;8.00;99.90;;;;;;4147221;28;20049;-66
2022/03/16 00:13:56;;;;;;;7.50;5.22;;;8.00;99.90;;;;;;4142840;28;20087;-66
2022/03/16 00:15:57;;;;;;;7.32;5.15;;;8.00;99.90;;;;;;4144562;28;20034;-66
2022/03/16 00:17:57;;;;;;;10.80;5.72;;;8.00;99.90;;;;;;4143935;28;20042;-66
2022/03/16 00:19:58;;;;;;;8.43;5.43;;;7.90;99.90;;;;;;4145153;28;20118;-66
2022/03/16 00:22:00;;;;;;;6.70;5.00;;;7.80;99.90;;;;;;4142955;28;20049;-66
2022/03/16 00:24:01;;;;;;;8.15;5.00;;;7.50;99.90;;;;;;4144100;28;20040;-66
2022/03/16 00:26:03;;;;;;;8.32;5.55;;;7.30;99.90;;;;;;4140446;28;20085;-66
2022/03/16 00:28:03;;;;;;;8.32;5.32;;;7.40;99.90;;;;;;4140920;28;20039;-66
2022/03/16 00:30:04;;;;;;;7.75;5.72;;;7.40;99.90;;;;;;4143716;28;20053;-67
2022/03/16 00:32:06;;;;;;;10.35;7.50;;;7.30;99.90;;;;;;4144198;28;20046;-66
2022/03/16 00:34:06;;;;;;;9.20;7.30;;;7.10;99.90;;;;;;4142365;28;20038;-66
2022/03/16 00:36:07;;;;;;;10.95;6.80;;;7.10;99.90;;;;;;4143331;28;20488;-66
2022/03/16 00:38:09;;;;;;;8.93;6.35;;;7.10;99.90;;;;;;4143152;28;20116;-66
2022/03/16 00:40:11;;;;;;;;;;;7.20;99.90;;;;;;4144772;28;20061;-69
2022/03/16 00:42:11;;;;;;;11.57;7.40;;;7.20;99.90;;;;;;4143350;28;19932;-66
2022/03/16 00:44:12;;;;;;;11.00;6.30;;;7.20;99.90;;;;;;4143968;28;20050;-67
2022/03/16 00:46:13;;;;;;;9.57;6.30;;;7.30;99.90;;;;;;4142174;28;20488;-67
2022/03/16 00:48:13;;;;;;;10.95;7.60;;;7.30;99.90;;;;;;4143883;28;20102;-66
2022/03/16 00:50:14;;;;;;;14.73;7.47;;;7.20;99.90;;;;;;4142353;28;20037;-66
2022/03/16 00:52:15;;;;;;;12.75;6.72;;;6.90;99.90;;;;;;4143181;28;20049;-66
2022/03/16 00:54:15;;;;;;;9.63;6.43;;;7.00;99.90;;;;;;4140650;28;20065;-66
2022/03/16 00:56:16;;;;;;;9.27;6.60;;;7.00;99.90;;;;;;4141588;28;20048;-66
2022/03/16 00:58:17;;;;;;;11.32;7.30;;;7.00;99.90;;;;;;4144275;28;20436;-66
2022/03/16 01:00:17;;;;;;;13.05;7.85;;;7.00;99.90;;;;;;4140398;28;20038;-67
2022/03/16 01:02:18;;;;;;;12.02;7.70;;;6.80;99.90;;;;;;4140738;28;20046;-66
2022/03/16 01:04:18;;;;;;;11.43;7.40;;;6.80;99.90;;;;;;4142782;28;20476;-66
2022/03/16 01:06:20;;;;;;;11.15;7.25;;;6.80;99.90;;;;;;4141542;28;20042;-66
2022/03/16 01:08:20;;;;;;;11.73;7.00;;;6.90;99.90;;;;;;4139836;28;20120;-66
2022/03/16 01:10:21;;;;;;;13.10;7.50;;;6.90;99.90;;;;;;4143418;28;20033;-66
2022/03/16 01:12:22;;;;;;;14.30;8.50;;;6.70;99.90;;;;;;4143732;28;20485;-66
2022/03/16 01:14:22;;;;;;;12.63;7.82;;;6.50;99.90;;;;;;4141945;28;20172;-66
2022/03/16 01:16:23;;;;;;;13.63;8.38;;;6.20;99.90;;;;;;4142697;28;20082;-66
2022/03/16 01:18:23;;;;;;;12.18;8.10;;;6.20;99.90;;;;;;4142721;28;20405;-66
2022/03/16 01:20:24;;;;;;;12.75;8.18;;;6.20;99.90;;;;;;4140953;28;20453;-66
2022/03/16 01:22:25;;;;;;;14.13;8.07;;;6.10;99.90;;;;;;4142983;28;20056;-67
2022/03/16 01:24:25;;;;;;;12.60;8.63;;;6.00;99.90;;;;;;4142830;28;20042;-66
2022/03/16 01:26:26;;;;;;;12.55;8.10;;;6.00;99.90;;;;;;4145397;28;20038;-66
2022/03/16 01:28:27;;;;;;;11.73;8.00;;;6.10;99.90;;;;;;4143694;28;20076;-66
2022/03/16 01:30:27;;;;;;;12.65;8.68;;;6.20;99.90;;;;;;4142432;28;20025;-67
2022/03/16 01:32:28;;;;;;;13.13;9.10;;;6.10;99.90;;;;;;4142138;28;20077;-66
2022/03/16 01:34:28;;;;;;;12.93;8.50;;;6.20;99.90;;;;;;4141971;28;20042;-66
2022/03/16 01:36:29;;;;;;;15.27;9.38;;;5.90;99.90;;;;;;4142571;28;20540;-66
2022/03/16 01:38:30;;;;;;;14.43;9.00;;;5.80;99.90;;;;;;4142788;28;20042;-67
2022/03/16 01:40:30;;;;;;;13.55;8.45;;;5.80;99.90;;;;;;4143423;28;20464;-66
2022/03/16 01:42:34;;;;;;;12.45;8.27;;;5.90;99.90;;;;;;4143280;28;20033;-66
2022/03/16 01:44:49;;;;;;;14.25;9.07;;;6.00;99.90;;;;;;4143931;28;20429;-66
2022/03/16 01:46:49;;;;;;;11.70;8.23;;;6.00;99.90;;;;;;4141582;28;20061;-66
2022/03/16 01:48:51;;;;;;;13.82;7.63;;;6.10;99.90;;;;;;4141378;28;20038;-66
2022/03/16 01:50:54;;;;;;;10.90;7.28;;;6.20;99.90;;;;;;4142852;28;20417;-66
2022/03/16 01:52:54;;;;;;;11.15;7.88;;;6.20;99.90;;;;;;4142038;28;20046;-66
2022/03/16 01:54:56;;;;;;;10.50;7.55;;;6.30;99.90;;;;;;4142898;28;20392;-66
2022/03/16 01:56:57;;;;;;;10.25;7.25;;;6.40;99.90;;;;;;4144515;28;20157;-67
2022/03/16 01:58:57;;;;;;;12.85;8.60;;;6.40;99.90;;;;;;4146363;28;20042;-66
2022/03/16 02:00:58;;;;;;;13.20;9.00;;;6.40;99.90;;;;;;4146388;28;20052;-67
2022/03/16 02:02:59;;;;;;;14.32;8.88;;;6.40;99.90;;;;;;4129457;28;20089;-66
2022/03/16 02:05:00;;;;;;;14.55;8.05;;;6.40;99.90;;;;;;4145647;28;20026;-66
2022/03/16 02:07:00;;;;;;;14.18;8.65;;;6.50;99.90;;;;;;4146356;28;20442;-66
2022/03/16 02:09:01;;;;;;;12.43;8.52;;;6.60;99.90;;;;;;4144849;28;20069;-67
2022/03/16 02:11:03;;;;;;;11.05;7.90;;;6.70;99.90;;;;;;4144478;28;21680;-67
2022/03/16 02:13:10;;;;;;;14.23;9.03;;;6.70;99.90;;;;;;4145468;28;20107;-67
2022/03/16 02:15:11;;;;;;;13.73;8.60;;;6.80;99.90;;;;;;4144107;28;20046;-67
2022/03/16 02:17:12;;;;;;;10.50;7.80;;;6.90;99.90;;;;;;4145940;28;20121;-66
2022/03/16 02:19:13;;;;;;;13.32;9.38;;;6.90;99.90;;;;;;4145317;28;20465;-67
2022/03/16 02:21:16;;;;;;;14.48;8.98;;;6.80;99.90;;;;;;4145043;28;20058;-66
2022/03/16 02:23:17;;;;;;;12.63;8.57;;;6.80;99.90;;;;;;4141738;28;20112;-67
2022/03/16 02:25:18;;;;;;;13.45;8.40;;;6.80;99.90;;;;;;4145322;28;20469;-67
2022/03/16 02:27:19;;;;;;;13.80;8.63;;;6.80;99.90;;;;;;4146419;28;20108;-66
2022/03/16 02:29:19;;;;;;;14.27;9.35;;;6.80;99.90;;;;;;4145068;28;20034;-67
2022/03/16 02:31:20;;;;;;;14.68;9.18;;;6.50;99.90;;;;;;4145132;28;20053;-66
2022/03/16 02:33:21;;;;;;;12.63;8.32;;;6.50;99.90;;;;;;4145511;28;20099;-67
2022/03/16 02:35:22;;;;;;;13.80;7.90;;;6.60;99.90;;;;;;4145094;28;20058;-66
2022/03/16 02:37:23;;;;;;;12.88;8.20;;;6.70;99.90;;;;;;4144859;28;20041;-66
2022/03/16 02:39:23;;;;;;;13.32;8.45;;;6.80;99.90;;;;;;4145362;28;20034;-67
2022/03/16 02:41:24;;;;;;;12.63;8.27;;;6.90;99.90;;;;;;4143467;28;20313;-67
2022/03/16 02:43:24;;;;;;;13.32;8.23;;;6.90;99.90;;;;;;4144134;28;20038;-67
2022/03/16 02:45:25;;;;;;;11.02;7.75;;;7.00;99.90;;;;;;4144011;28;20527;-67
2022/03/16 02:47:27;;;;;;;11.45;7.85;;;7.10;99.90;;;;;;4145270;28;20053;-67
2022/03/16 02:49:28;;;;;;;12.93;8.40;;;7.10;99.90;;;;;;4144702;28;20052;-67
2022/03/16 02:51:29;;;;;;;12.57;8.55;;;7.10;99.90;;;;;;4143672;28;20117;-67
2022/03/16 02:53:29;;;;;;;13.52;8.85;;;7.00;99.90;;;;;;4144193;28;20058;-66
2022/03/16 02:55:30;;;;;;;14.13;8.02;;;6.90;99.90;;;;;;4144557;28;20104;-66
2022/03/16 02:57:31;;;;;;;14.02;8.13;;;6.80;99.90;;;;;;4145076;28;20405;-66
2022/03/16 02:59:31;;;;;;;13.90;8.13;;;6.90;99.90;;;;;;4145035;28;20056;-67
2022/03/16 03:01:32;;;;;;;11.30;8.13;;;6.90;99.90;;;;;;4144915;28;20069;-67
2022/03/16 03:03:32;;;;;;;10.98;7.88;;;7.00;99.90;;;;;;4146153;28;20041;-66
2022/03/16 03:05:33;;;;;;;11.85;7.50;;;7.00;99.90;;;;;;4144183;28;20176;-67
2022/03/16 03:07:34;;;;;;;10.70;7.55;;;7.10;99.90;;;;;;4143731;28;20029;-67
2022/03/16 03:09:35;;;;;;;12.52;7.93;;;7.10;99.90;;;;;;4143498;28;20046;-66
2022/03/16 03:11:36;;;;;;;12.47;8.10;;;7.10;99.90;;;;;;4143728;28;20398;-66
2022/03/16 03:13:37;;;;;;;11.82;7.22;;;7.20;99.90;;;;;;4144641;28;20117;-67
2022/03/16 03:15:38;;;;;;;12.07;7.47;;;7.20;99.90;;;;;;4145177;28;20042;-67
2022/03/16 03:17:39;;;;;;;11.80;8.00;;;7.20;99.90;;;;;;4144064;28;20079;-66
2022/03/16 03:19:40;;;;;;;12.70;7.85;;;7.20;99.90;;;;;;4145971;28;20462;-66
2022/03/16 03:21:40;;;;;;;14.80;8.88;;;7.20;99.90;;;;;;4144136;28;20149;-66
2022/03/16 03:23:41;;;;;;;12.65;8.75;;;7.00;99.90;;;;;;4144450;28;20034;-66
2022/03/16 03:25:42;;;;;;;13.52;8.32;;;7.00;99.90;;;;;;4143182;28;20042;-67
2022/03/16 03:27:43;;;;;;;13.18;7.55;;;7.00;99.90;;;;;;4144386;28;20068;-67
2022/03/16 03:29:43;;;;;;;13.50;8.20;;;6.80;99.90;;;;;;4145231;28;20040;-67
2022/03/16 03:31:44;;;;;;;14.48;8.43;;;6.80;99.90;;;;;;4143357;28;20045;-67
2022/03/16 03:33:44;;;;;;;12.27;8.15;;;6.80;99.90;;;;;;4144519;28;20444;-66
2022/03/16 03:35:45;;;;;;;13.02;7.50;;;6.80;99.90;;;;;;4144178;28;20101;-67
2022/03/16 03:37:46;;;;;;;10.32;7.22;;;6.80;99.90;;;;;;4147023;28;20052;-66
2022/03/16 03:39:46;;;;;;;10.80;7.28;;;6.90;99.90;;;;;;4143645;28;20432;-67
2022/03/16 03:41:47;;;;;;;12.07;7.40;;;7.00;99.90;;;;;;4144697;28;20409;-66
2022/03/16 03:43:48;;;;;;;10.50;7.28;;;7.00;99.90;;;;;;4144285;28;20034;-67
2022/03/16 03:45:48;;;;;;;12.32;8.15;;;7.00;99.90;;;;;;4142362;28;20117;-67
2022/03/16 03:47:49;;;;;;;10.30;7.10;;;6.90;99.90;;;;;;4145320;28;20437;-67
2022/03/16 03:49:49;;;;;;;10.45;6.90;;;7.00;99.90;;;;;;4146295;28;20050;-67
2022/03/16 03:51:50;;;;;;;11.65;7.18;;;7.00;99.90;;;;;;4143513;28;20409;-67
2022/03/16 03:53:50;;;;;;;13.20;6.90;;;7.00;99.90;;;;;;4143424;28;20110;-67
2022/03/16 03:55:51;;;;;;;11.38;7.50;;;7.10;99.90;;;;;;4143618;28;20038;-67
2022/03/16 03:57:52;;;;;;;10.73;7.00;;;7.10;99.90;;;;;;4144510;28;20060;-67
2022/03/16 03:59:52;;;;;;;13.40;7.30;;;7.20;99.90;;;;;;4143894;28;20038;-67
2022/03/16 04:01:53;;;;;;;11.23;7.38;;;7.20;99.90;;;;;;4142954;28;20042;-67
2022/03/16 04:03:53;;;;;;;11.20;6.88;;;7.10;99.90;;;;;;4144080;28;20034;-66
2022/03/16 04:05:54;;;;;;;11.65;7.30;;;7.20;99.90;;;;;;4143769;28;20054;-67
2022/03/16 04:07:55;;;;;;;11.68;7.03;;;7.20;99.90;;;;;;4144077;28;20374;-67
2022/03/16 04:09:55;;;;;;;10.35;6.60;;;7.20;99.90;;;;;;4144609;28;20132;-67
2022/03/16 04:11:56;;;;;;;10.52;7.03;;;7.20;99.90;;;;;;4142233;28;20049;-66
2022/03/16 04:13:56;;;;;;;11.00;7.13;;;7.20;99.90;;;;;;4144842;28;20073;-67
2022/03/16 04:15:57;;;;;;;9.02;6.35;;;7.20;99.90;;;;;;4141374;28;20396;-66
2022/03/16 04:17:57;;;;;;;12.30;7.28;;;7.10;99.90;;;;;;4142001;28;20041;-66
2022/03/16 04:19:58;;;;;;;12.38;7.15;;;7.20;99.90;;;;;;4141876;28;20068;-66
2022/03/16 04:21:58;;;;;;;10.77;7.38;;;7.20;99.90;;;;;;4143497;28;20149;-67
2022/03/16 04:24:00;;;;;;;9.98;6.60;;;7.20;99.90;;;;;;4144954;28;20114;-67
2022/03/16 04:26:01;;;;;;;13.98;7.05;;;7.20;99.90;;;;;;4125465;28;20042;-67
2022/03/16 04:28:02;;;;;;;11.65;6.90;;;7.20;99.90;;;;;;4143001;28;20042;-67
2022/03/16 04:30:03;;;;;;;11.82;6.75;;;7.10;99.90;;;;;;4142962;28;20109;-68
2022/03/16 04:32:04;;;;;;;11.27;7.18;;;7.20;99.90;;;;;;4144322;28;20042;-66
2022/03/16 04:34:05;;;;;;;12.70;6.88;;;7.20;99.90;;;;;;4141864;28;20128;-67
2022/03/16 04:36:06;;;;;;;11.52;6.78;;;7.20;99.90;;;;;;4126513;28;20081;-66
2022/03/16 04:38:08;;;;;;;13.52;6.90;;;7.20;99.90;;;;;;4143521;28;20034;-67
2022/03/16 04:40:09;;;;;;;12.18;7.35;;;7.30;99.90;;;;;;4142970;28;20485;-67
2022/03/16 04:42:09;;;;;;;9.50;6.35;;;7.20;99.90;;;;;;4143704;28;20121;-67
2022/03/16 04:44:10;;;;;;;10.00;6.55;;;7.30;99.90;;;;;;4144615;28;20468;-66
2022/03/16 04:46:11;;;;;;;13.15;6.90;;;7.30;99.90;;;;;;4142473;28;20397;-67
2022/03/16 04:48:11;;;;;;;12.43;7.13;;;7.30;99.90;;;;;;4144445;28;20030;-67
2022/03/16 04:50:12;;;;;;;11.15;7.22;;;7.30;99.90;;;;;;4141643;28;20080;-67
2022/03/16 04:52:13;;;;;;;10.93;6.72;;;7.40;99.90;;;;;;4142936;28;20046;-67
2022/03/16 04:54:14;;;;;;;11.80;6.43;;;7.30;99.90;;;;;;4142351;28;20046;-67
2022/03/16 04:56:15;;;;;;;10.50;6.53;;;7.30;99.90;;;;;;4141479;28;20045;-67
2022/03/16 04:58:15;;;;;;;11.45;6.30;;;7.30;99.90;;;;;;4143414;28;20084;-67
2022/03/16 05:00:16;;;;;;;9.38;6.38;;;7.30;99.90;;;;;;4141598;28;20041;-67
2022/03/16 05:02:17;;;;;;;10.40;6.45;;;7.30;99.90;;;;;;4143401;28;20385;-67
2022/03/16 05:04:17;;;;;;;11.48;6.20;;;7.30;99.90;;;;;;4143048;28;20030;-67
2022/03/16 05:06:18;;;;;;;10.90;6.47;;;7.30;99.90;;;;;;4142852;28;20033;-67
2022/03/16 05:08:19;;;;;;;10.57;6.18;;;7.30;99.90;;;;;;4144279;28;20133;-67
2022/03/16 05:10:19;;;;;;;13.50;6.28;;;7.30;99.90;;;;;;4142402;28;20042;-67
2022/03/16 05:12:20;;;;;;;12.30;6.85;;;7.30;99.90;;;;;;4141074;28;20389;-67
2022/03/16 05:14:21;;;;;;;12.30;6.57;;;7.30;99.90;;;;;;4143693;28;20045;-67
2022/03/16 05:16:21;;;;;;;11.90;6.53;;;7.20;99.90;;;;;;4144943;28;20042;-67
2022/03/16 05:18:26;;;;;;;10.30;6.20;;;7.20;99.90;;;;;;4143392;28;20034;-67
2022/03/16 05:20:27;;;;;;;11.73;6.18;;;7.30;99.90;;;;;;4142546;28;20068;-67
2022/03/16 05:22:27;;;;;;;8.98;6.35;;;7.30;99.90;;;;;;4142707;28;20480;-67
2022/03/16 05:24:28;;;;;;;12.20;6.28;;;7.30;99.90;;;;;;4141811;28;20033;-66
2022/03/16 05:26:29;;;;;;;13.10;6.82;;;7.20;99.90;;;;;;4143279;28;20030;-67
2022/03/16 05:28:29;;;;;;;14.23;7.45;;;7.20;99.90;;;;;;4143768;28;20030;-67
2022/03/16 05:30:30;;;;;;;14.10;6.85;;;7.10;99.90;;;;;;4142705;28;20112;-67
2022/03/16 05:32:32;;;;;;;12.80;6.90;;;7.10;99.90;;;;;;4144165;28;20079;-67
2022/03/16 05:34:32;;;;;;;16.73;7.68;;;7.10;99.90;;;;;;4144962;28;20030;-67
2022/03/16 05:36:33;;;;;;;14.07;6.75;;;7.10;99.90;;;;;;4144295;28;20061;-67
2022/03/16 05:38:33;;;;;;;11.23;6.82;;;7.20;99.90;;;;;;4147573;28;20918;-67
2022/03/16 05:40:35;;;;;;;11.55;6.07;;;7.20;99.90;;;;;;4145867;28;20076;-67
2022/03/16 05:42:36;;;;;;;10.45;6.38;;;7.20;99.90;;;;;;4145439;28;20056;-67
2022/03/16 05:44:36;;;;;;;14.00;6.40;;;7.20;99.90;;;;;;4146807;28;20034;-67
2022/03/16 05:46:37;;;;;;;11.70;6.43;;;7.20;99.90;;;;;;4145445;28;20038;-67
2022/03/16 05:48:37;;;;;;;11.55;6.60;;;7.30;99.90;;;;;;4146945;28;20046;-67
2022/03/16 05:50:40;;;;;;;10.27;6.45;;;7.30;99.90;;;;;;4145145;28;20034;-67
2022/03/16 05:52:43;;;;;;;;;;;7.30;99.90;;;;;;4147808;28;20176;-67
2022/03/16 05:54:43;;;;;;;10.02;5.93;;;7.30;99.90;;;;;;4144668;28;19917;-66
2022/03/16 05:56:44;;;;;;;9.68;6.18;;;7.30;99.90;;;;;;4145608;28;20034;-67
2022/03/16 05:58:44;;;;;;;10.18;5.90;;;7.30;99.90;;;;;;4145533;28;20105;-67
2022/03/16 06:00:45;;;;;;;12.13;7.03;;;7.30;99.90;;;;;;4146507;28;20485;-66
2022/03/16 06:02:47;;;;;;;13.70;6.75;;;7.20;99.90;;;;;;4146056;28;20127;-68
2022/03/16 06:04:48;;;;;;;11.13;6.85;;;7.20;99.90;;;;;;4146533;28;20046;-67
2022/03/16 06:06:48;;;;;;;10.73;6.22;;;7.20;99.90;;;;;;4144423;28;20106;-67
2022/03/16 06:08:49;;;;;;;9.30;6.03;;;7.20;99.90;;;;;;4141903;28;20041;-66
2022/03/16 06:10:49;;;;;;;11.18;6.32;;;7.30;99.90;;;;;;4144722;28;20440;-67
2022/03/16 06:13:01;;;;;;;10.77;7.10;;;7.20;99.90;;;;;;4145973;28;20040;-67
2022/03/16 06:15:02;;;;;;;11.52;6.70;;;7.20;99.90;;;;;;4158996;28;20408;-67
2022/03/16 06:17:03;;;;;;;11.52;6.45;;;7.30;99.90;;;;;;4144129;28;20117;-67
2022/03/16 06:19:04;;;;;;;14.68;6.60;;;7.30;99.90;;;;;;4146308;28;20119;-67
2022/03/16 06:21:04;;;;;;;10.05;6.22;;;7.30;99.90;;;;;;4144752;28;20071;-67
2022/03/16 06:23:05;;;;;;;10.48;6.15;;;7.20;99.90;;;;;;4143896;28;20041;-66
2022/03/16 06:25:06;;;;;;;10.68;6.50;;;7.20;99.90;;;;;;4145376;28;20120;-67
2022/03/16 06:27:07;;;;;;;11.35;6.85;;;7.30;99.90;;;;;;4146129;28;20388;-67
2022/03/16 06:29:08;;;;;;;12.15;6.68;;;7.20;99.90;;;;;;4147595;28;20128;-67
2022/03/16 06:31:09;;;;;;;10.02;6.28;;;7.20;99.90;;;;;;4144250;28;20110;-67
2022/03/16 06:33:09;;;;;;;9.18;6.20;;;7.30;99.90;;;;;;4147244;28;20030;-67
2022/03/16 06:35:10;;;;;;;13.38;6.85;;;7.30;99.90;;;;;;4143750;28;20041;-68
2022/03/16 06:37:10;;;;;;;10.90;6.70;;;7.30;99.90;;;;;;4144373;28;20112;-67
2022/03/16 06:39:11;;;;;;;12.77;7.43;;;7.30;99.90;;;;;;4143967;28;20042;-67
2022/03/16 06:41:12;;;;;;;9.43;6.30;;;7.30;99.90;;;;;;4142760;28;20561;-67
2022/03/16 06:43:12;;;;;;;10.23;6.70;;;7.40;99.90;;;;;;4146294;28;20037;-67
2022/03/16 06:45:13;;;;;;;13.90;6.47;;;7.40;99.90;;;;;;4146387;28;20073;-68
2022/03/16 06:47:14;;;;;;;13.98;6.60;;;7.50;99.90;;;;;;4143270;28;20046;-67
2022/03/16 06:49:14;;;;;;;11.95;7.38;;;7.50;99.90;;;;;;4144711;28;20080;-67
2022/03/16 06:51:15;;;;;;;12.40;7.40;;;7.50;99.90;;;;;;4143227;28;20145;-67
2022/03/16 06:53:16;;;;;;;12.27;7.35;;;7.60;99.90;;;;;;4143350;28;20402;-66
2022/03/16 06:55:16;;;;;;;10.77;7.10;;;7.70;99.90;;;;;;4145201;28;20049;-66
2022/03/16 06:57:17;;;;;;;11.63;7.50;;;7.90;99.90;;;;;;4150172;28;20034;-66
2022/03/16 06:59:18;;;;;;;14.30;7.78;;;8.00;99.90;;;;;;4145454;28;20036;-67
2022/03/16 07:01:18;;;;;;;12.43;8.07;;;8.20;99.90;;;;;;4143254;28;20118;-66
2022/03/16 07:03:19;;;;;;;14.55;8.75;;;8.40;99.90;;;;;;4144543;28;20533;-66
2022/03/16 07:05:23;;;;;;;13.18;8.48;;;8.70;99.90;;;;;;4144536;28;20057;-67
2022/03/16 07:07:26;;;;;;;15.27;9.45;;;8.80;99.90;;;;;;4145753;28;20034;-67
2022/03/16 07:09:27;;;;;;;13.65;9.07;;;8.90;99.90;;;;;;4144462;28;20046;-66
2022/03/16 07:11:28;;;;;;;14.10;9.00;;;9.20;99.90;;;;;;4145102;28;20038;-66
2022/03/16 07:13:29;;;;;;;12.45;8.15;;;9.40;99.90;;;;;;4145898;28;20084;-66
2022/03/16 07:15:31;;;;;;;15.52;8.98;;;9.60;99.90;;;;;;4143288;28;21601;-66
2022/03/16 07:17:32;;;;;;;;;;;9.80;99.90;;;;;;4145763;28;20084;-66
2022/03/16 07:19:32;;;;;;;15.75;9.15;;;9.90;99.90;;;;;;4144109;28;19917;-67
2022/03/16 07:21:34;;;;;;;14.38;9.20;;;9.90;99.90;;;;;;4143039;28;20390;-67
2022/03/16 07:23:34;;;;;;;11.82;7.97;;;10.00;99.90;;;;;;4144921;28;20030;-66
2022/03/16 07:25:36;;;;;;;15.00;8.93;;;10.00;99.90;;;;;;4141884;28;20044;-66
2022/03/16 07:27:41;;;;;;;13.38;9.02;;;10.00;99.90;;;;;;4142983;28;20466;-66
2022/03/16 07:29:42;;;;;;;14.52;9.10;;;9.90;99.90;;;;;;4142489;28;20048;-67
2022/03/16 07:31:42;;;;;;;14.38;8.30;;;10.20;99.90;;;;;;4144633;28;20550;-67
2022/03/16 07:33:43;;;;;;;13.85;9.18;;;10.30;99.90;;;;;;4144658;28;20034;-67
2022/03/16 07:35:44;;;;;;;15.38;9.65;;;10.50;99.90;;;;;;4144200;28;20038;-66
2022/03/16 07:37:46;;;;;;;16.00;9.95;;;10.50;99.90;;;;;;4147488;28;20065;-66
2022/03/16 07:39:47;;;;;;;14.55;8.88;;;10.60;99.90;;;;;;4143221;28;21008;-66
2022/03/16 07:41:48;;;;;;;14.18;9.05;;;10.70;99.90;;;;;;4138513;28;20073;-66
2022/03/16 07:43:48;;;;;;;12.40;9.10;;;10.70;99.90;;;;;;4143043;28;20040;-66
2022/03/16 07:45:49;;;;;;;13.40;8.93;;;10.90;99.90;;;;;;4140149;28;20030;-66
2022/03/16 07:47:52;;;;;;;13.88;8.65;;;10.70;99.90;;;;;;4140140;28;20054;-66
2022/03/16 07:49:56;;;;;;;12.95;8.52;;;10.70;99.90;;;;;;4144659;28;20112;-66
2022/03/16 07:51:56;;;;;;;14.10;8.30;;;10.80;99.90;;;;;;4143961;28;20547;-67
2022/03/16 07:53:57;;;;;;;14.02;8.52;;;10.90;99.90;;;;;;4143354;28;20041;-66
2022/03/16 07:55:57;;;;;;;14.27;9.15;;;10.80;99.90;;;;;;4142149;28;20038;-65
2022/03/16 07:57:59;;;;;;;11.70;7.78;;;11.00;99.90;;;;;;4143810;28;20473;-66
2022/03/16 07:59:59;;;;;;;13.45;8.77;;;11.30;99.90;;;;;;4143296;28;20066;-67
2022/03/16 08:02:00;;;;;;;14.45;8.45;;;11.50;99.90;;;;;;4143233;28;20164;-66
2022/03/16 08:04:00;;;;;;;14.68;7.75;;;11.60;99.90;;;;;;4144328;28;20042;-66
2022/03/16 08:06:01;;;;;;;12.40;7.78;;;11.60;99.90;;;;;;4145285;28;20421;-66
2022/03/16 08:08:02;;;;;;;12.52;8.15;;;11.80;99.90;;;;;;4143694;28;20452;-67
2022/03/16 08:10:03;;;;;;;11.13;7.80;;;12.00;99.90;;;;;;4144106;28;20046;-68
2022/03/16 08:12:04;;;;;;;10.25;7.97;;;12.30;99.90;;;;;;4144078;28;20038;-66
2022/03/16 08:14:05;;;;;;;12.27;8.43;;;12.20;99.90;;;;;;4142230;28;20045;-67
2022/03/16 08:16:06;;;;;;;12.13;8.52;;;12.30;99.90;;;;;;4143581;28;20034;-66
2022/03/16 08:18:07;;;;;;;11.85;8.07;;;12.30;99.90;;;;;;4145407;28;20539;-66
2022/03/16 08:20:08;;;;;;;14.30;8.13;;;12.50;99.90;;;;;;4145654;28;20033;-67
2022/03/16 08:22:09;;;;;;;8.43;6.68;;;12.40;99.90;;;;;;4149615;28;20068;-67
2022/03/16 08:24:09;;;;;;;10.10;7.32;;;12.40;99.90;;;;;;4143449;28;20116;-66
2022/03/16 08:26:10;;;;;;;10.27;7.80;;;12.30;99.90;;;;;;4145216;28;20084;-67
2022/03/16 08:28:11;;;;;;;12.45;7.70;;;12.30;99.90;;;;;;4142925;28;20038;-67
2022/03/16 08:30:11;;;;;;;11.18;7.55;;;12.20;99.90;;;;;;4140747;28;20425;-67
2022/03/16 08:32:12;;;;;;;10.35;7.93;;;12.30;99.90;;;;;;4144107;28;20049;-67
2022/03/16 08:34:13;;;;;;;11.82;8.27;;;12.20;99.90;;;;;;4145097;28;20385;-67
2022/03/16 08:36:13;;;;;;;12.27;8.15;;;12.30;99.90;;;;;;4142911;28;20041;-67
2022/03/16 08:38:14;;;;;;;11.60;8.75;;;12.30;99.90;;;;;;4143009;28;20069;-66
2022/03/16 08:40:16;;;;;;;11.35;8.35;;;12.30;99.90;;;;;;4142646;28;20046;-67
2022/03/16 08:42:17;;;;;;;12.15;8.52;;;12.40;99.90;;;;;;4143102;28;20037;-66
2022/03/16 08:44:18;;;;;;;12.82;9.20;;;12.30;99.90;;;;;;4143288;28;20041;-66
2022/03/16 08:46:24;;;;;;;10.50;8.20;;;12.00;99.90;;;;;;4144546;28;20084;-67
2022/03/16 08:48:25;;;;;;;13.52;9.02;;;12.20;99.90;;;;;;4143191;28;20073;-66
2022/03/16 08:50:26;;;;;;;11.15;8.43;;;12.10;99.90;;;;;;4144125;28;20062;-67
2022/03/16 08:52:26;;;;;;;11.70;8.68;;;12.10;99.90;;;;;;4143345;28;20050;-66
2022/03/16 08:54:28;;;;;;;11.77;8.38;;;12.10;99.90;;;;;;4143684;28;20034;-66
2022/03/16 08:56:28;;;;;;;13.07;8.07;;;11.90;99.90;;;;;;4141807;28;20039;-66
2022/03/16 08:58:29;;;;;;;11.48;8.27;;;11.90;99.90;;;;;;4145070;28;20038;-66
2022/03/16 09:00:29;;;;;;;12.70;8.52;;;11.90;99.90;;;;;;4142326;28;20038;-66
2022/03/16 09:02:30;;;;;;;13.20;9.27;;;12.10;99.90;;;;;;4142404;28;20117;-66
2022/03/16 09:04:31;;;;;;;11.25;8.70;;;12.00;99.90;;;;;;4142452;28;20066;-66
2022/03/16 09:06:32;;;;;;;11.93;7.60;;;12.10;99.90;;;;;;4141840;28;20490;-66
2022/03/16 09:08:32;;;;;;;12.02;9.15;;;12.10;99.90;;;;;;4143252;28;20061;-66
2022/03/16 09:10:34;;;;;;;10.38;8.43;;;12.10;99.90;;;;;;4142887;28;20030;-66
2022/03/16 09:12:35;;;;;;;13.00;9.70;;;12.10;99.90;;;;;;4143885;28;20051;-66
2022/03/16 09:14:36;;;;;;;11.95;8.68;;;11.90;99.90;;;;;;4143323;28;20038;-66
2022/03/16 09:16:37;;;;;;;14.50;8.82;;;11.90;99.90;;;;;;4142524;28;20053;-66
2022/03/16 09:18:37;;;;;;;15.70;9.48;;;12.00;99.90;;;;;;4143408;28;20481;-66
2022/03/16 09:20:38;;;;;;;13.30;9.48;;;12.00;99.90;;;;;;4143410;28;20474;-67
2022/03/16 09:22:39;;;;;;;13.23;9.43;;;11.90;99.90;;;;;;4144052;28;21727;-66
2022/03/16 09:24:39;;;;;;;14.73;10.23;;;12.00;99.90;;;;;;4147702;28;20115;-66
2022/03/16 09:26:40;;;;;;;14.23;9.75;;;12.00;99.90;;;;;;4141980;28;20498;-66
2022/03/16 09:28:41;;;;;;;12.02;8.48;;;12.00;99.90;;;;;;4145024;28;20121;-66
2022/03/16 09:30:42;;;;;;;12.50;7.75;;;12.00;99.90;;;;;;4142256;28;20034;-66
2022/03/16 09:32:42;;;;;;;13.23;8.90;;;12.20;99.90;;;;;;4141114;28;20045;-66
2022/03/16 09:34:43;;;;;;;11.93;9.20;;;12.20;99.90;;;;;;4146479;28;20042;-66
2022/03/16 09:36:45;;;;;;;14.05;9.30;;;12.40;99.90;;;;;;4142956;28;20362;-66
2022/03/16 09:38:46;;;;;;;11.27;8.90;;;12.50;99.90;;;;;;4140797;28;20042;-66
2022/03/16 09:40:52;;;;;;;12.35;9.27;;;12.60;99.90;;;;;;4143027;28;20519;-66
2022/03/16 09:42:54;;;;;;;13.70;9.70;;;12.60;99.90;;;;;;4142183;28;20397;-66
2022/03/16 09:44:57;;;;;;;13.52;9.20;;;12.50;99.90;;;;;;4144692;28;20149;-66
2022/03/16 09:46:58;;;;;;;;;;;12.50;99.90;;;;;;4143661;28;20045;-66
2022/03/16 09:48:59;;;;;;;13.65;9.55;;;12.50;99.90;;;;;;4142994;28;20285;-66
2022/03/16 09:51:00;;;;;;;13.38;8.25;;;12.40;99.90;;;;;;4142467;28;20046;-65
2022/03/16 09:53:01;;;;;;;11.10;8.63;;;12.60;99.90;;;;;;4142924;28;20046;-66
2022/03/16 09:55:05;;;;;;;11.38;8.85;;;12.70;99.90;;;;;;4145737;28;20477;-66
2022/03/16 09:57:06;;;;;;;11.93;9.13;;;12.80;99.90;;;;;;4144509;28;20030;-66
2022/03/16 09:59:06;;;;;;;14.43;9.68;;;12.90;99.90;;;;;;4142677;28;20037;-66
2022/03/16 10:01:07;;;;;;;12.73;9.25;;;13.00;99.90;;;;;;4141786;28;20069;-66
2022/03/16 10:03:08;;;;;;;13.50;9.82;;;13.00;99.90;;;;;;4143907;28;20505;-66
2022/03/16 10:05:09;;;;;;;11.85;8.85;;;12.90;99.90;;;;;;4144020;28;20033;-70
2022/03/16 10:07:10;;;;;;;12.43;8.93;;;12.90;99.90;;;;;;4140855;28;20050;-66
2022/03/16 10:14:07;;;;;;;11.23;8.82;;;13.00;99.90;;;;;;4144747;28;20041;-66
2022/03/16 10:16:10;;;;;;;10.88;7.95;;;13.00;99.90;;;;;;4141153;28;20038;-66
2022/03/16 10:18:14;;;;;;;;;;;13.00;99.90;;;;;;4147355;28;20084;-66
2022/03/16 10:20:36;;;;;;;12.50;8.40;;;13.20;99.90;;;;;;4140879;28;19952;-67
2022/03/16 10:22:40;;;;;;;12.47;9.53;;;13.30;99.90;;;;;;4145087;28;20113;-66
2022/03/16 10:24:41;;;;;;;13.75;8.35;;;13.30;99.90;;;;;;4147041;28;20125;-66
2022/03/16 10:26:51;;;;;;;11.40;8.50;;;13.10;99.90;;;;;;4143947;28;20076;-66
2022/03/16 10:28:58;;;;;;;11.70;8.35;;;13.10;99.90;;;;;;4146138;28;20045;-65
2022/03/16 10:31:05;;;;;;;13.65;8.27;;;13.20;99.90;;;;;;4145438;28;20476;-66
2022/03/16 10:33:06;;;;;;;11.52;8.30;;;13.20;99.90;;;;;;4144210;28;20057;-66
2022/03/16 10:35:07;;;;;;;11.57;8.38;;;13.20;99.90;;;;;;4128078;28;20482;-67